createdAt,value
2022-12-26T00:00:18.514Z,6.09
2022-12-26T00:05:42.281Z,6.08
2022-12-26T00:10:46.035Z,6.07
2022-12-26T00:15:49.892Z,6.08
2022-12-26T00:20:54.632Z,6.09
2022-12-26T00:26:05.999Z,6.12
2022-12-26T00:31:12.766Z,6.13
2022-12-26T00:36:29.440Z,6.16
2022-12-26T00:41:33.733Z,6.18
2022-12-26T00:46:37.471Z,6.21
2022-12-26T00:51:41.244Z,6.19
2022-12-26T00:56:44.967Z,6.18
2022-12-26T01:01:48.738Z,6.21
2022-12-26T01:06:52.686Z,6.24
2022-12-26T01:11:56.399Z,6.25
2022-12-26T01:17:00.384Z,6.26
2022-12-26T01:22:04.219Z,6.26
2022-12-26T01:27:07.967Z,6.26
2022-12-26T01:32:11.718Z,6.25
2022-12-26T01:37:16.885Z,6.24
2022-12-26T01:42:23.053Z,6.17
2022-12-26T01:47:43.712Z,6.10
2022-12-26T01:52:48.250Z,6.04
2022-12-26T01:57:57.462Z,5.96
2022-12-26T02:03:19.671Z,5.88
2022-12-26T02:08:32.983Z,5.79
2022-12-26T02:13:37.444Z,5.76
2022-12-26T02:18:41.147Z,5.77
2022-12-26T02:24:06.652Z,5.78
2022-12-26T02:29:35.417Z,5.81
2022-12-26T02:34:54.337Z,5.78
2022-12-26T02:40:27.162Z,5.82
2022-12-26T02:46:18.741Z,5.89
2022-12-26T02:51:46.045Z,5.96
2022-12-26T02:57:11.737Z,6.02
2022-12-26T03:02:45.555Z,6.02
2022-12-26T03:08:08.520Z,5.97
2022-12-26T03:13:17.447Z,5.91
2022-12-26T03:18:58.595Z,5.85
2022-12-26T03:23:48.044Z,5.78
2022-12-26T03:28:51.959Z,5.73
2022-12-26T03:34:17.752Z,5.71
2022-12-26T03:39:52.296Z,5.76
2022-12-26T03:45:29.898Z,5.83
2022-12-26T03:50:57.082Z,5.92
2022-12-26T03:56:45.032Z,5.98
2022-12-26T04:02:30.444Z,6.05
2022-12-26T04:07:58.665Z,6.08
2022-12-26T04:13:23.804Z,6.13
2022-12-26T04:18:58.669Z,6.20
2022-12-26T04:24:29.163Z,6.28
2022-12-26T04:29:51.856Z,6.29
2022-12-26T04:35:26.658Z,6.30
2022-12-26T04:40:52.015Z,6.28
2022-12-26T04:45:55.821Z,6.29
2022-12-26T04:51:00.137Z,6.37
2022-12-26T04:56:03.902Z,6.43
2022-12-26T05:01:26.452Z,6.48
2022-12-26T05:06:49.447Z,6.54
2022-12-26T05:11:53.106Z,6.61
2022-12-26T05:17:15.364Z,6.63
2022-12-26T05:22:37.625Z,6.62
2022-12-26T05:28:02.350Z,6.63
2022-12-26T05:33:24.862Z,6.67
2022-12-26T05:38:28.470Z,6.69
2022-12-26T05:43:32.386Z,6.73
2022-12-26T05:48:36.003Z,6.73
2022-12-26T05:53:39.703Z,6.78
2022-12-26T05:58:43.435Z,6.81
2022-12-26T06:03:49.403Z,6.84
2022-12-26T06:08:55.625Z,6.85
2022-12-26T06:14:00.357Z,6.87
2022-12-26T06:19:04.109Z,6.92
2022-12-26T06:24:07.944Z,6.98
2022-12-26T06:29:11.632Z,7.00
2022-12-26T06:34:15.390Z,6.99
2022-12-26T06:39:19.177Z,7.12
2022-12-26T06:44:22.888Z,7.49
2022-12-26T06:49:32.443Z,7.85
2022-12-26T06:54:36.663Z,8.14
2022-12-26T06:59:40.474Z,8.30
2022-12-26T07:04:44.128Z,8.41
2022-12-26T07:09:47.824Z,8.47
2022-12-26T07:14:52.052Z,8.53
2022-12-26T07:19:57.118Z,8.57
2022-12-26T07:25:00.812Z,8.65
2022-12-26T07:30:04.894Z,8.73
2022-12-26T07:35:09.247Z,8.79
2022-12-26T07:40:13.855Z,8.82
2022-12-26T07:45:18.615Z,8.83
2022-12-26T07:50:24.075Z,8.84
2022-12-26T07:55:27.860Z,8.87
2022-12-26T08:00:31.735Z,8.92
2022-12-26T08:05:35.671Z,9.00
2022-12-26T08:10:39.540Z,9.11
2022-12-26T08:15:43.241Z,9.20
2022-12-26T08:20:46.902Z,9.29
2022-12-26T08:25:50.547Z,9.33
2022-12-26T08:30:54.225Z,9.36
2022-12-26T08:36:03.115Z,9.34
2022-12-26T08:41:07.262Z,9.23
2022-12-26T08:46:12.416Z,9.14
2022-12-26T08:51:19.279Z,9.06
2022-12-26T08:56:25.273Z,8.99
2022-12-26T09:01:31.533Z,9.00
2022-12-26T09:06:37.528Z,9.04
2022-12-26T09:11:41.851Z,9.03
2022-12-26T09:16:50.471Z,9.22
2022-12-26T09:22:14.954Z,9.42
2022-12-26T09:27:18.725Z,9.42
2022-12-26T09:32:22.314Z,9.51
2022-12-26T09:37:25.991Z,9.77
2022-12-26T09:42:51.088Z,10.15
2022-12-26T09:48:00.223Z,10.44
2022-12-26T09:53:18.587Z,10.52
2022-12-26T09:58:59.133Z,10.58
2022-12-26T10:04:09.270Z,10.73
2022-12-26T10:09:43.494Z,11.10
2022-12-26T10:14:59.047Z,11.46
2022-12-26T10:20:16.815Z,11.55
2022-12-26T10:25:30.360Z,11.58
2022-12-26T10:30:40.725Z,11.62
2022-12-26T10:35:46.804Z,11.65
2022-12-26T10:40:52.926Z,11.59
2022-12-26T10:46:24.390Z,11.48
2022-12-26T10:51:28.198Z,11.37
2022-12-26T10:56:32.677Z,11.26
2022-12-26T11:01:38.664Z,11.18
2022-12-26T11:06:43.497Z,11.02
2022-12-26T11:11:49.564Z,10.91
2022-12-26T11:16:53.335Z,11.00
2022-12-26T11:22:15.336Z,11.27
2022-12-26T11:27:23.512Z,11.54
2022-12-26T11:32:27.953Z,11.70
2022-12-26T11:37:37.962Z,11.72
2022-12-26T11:42:41.778Z,11.81
2022-12-26T11:47:46.395Z,11.83
2022-12-26T11:52:56.093Z,12.03
2022-12-26T11:58:09.100Z,12.37
2022-12-26T12:03:16.976Z,12.38
2022-12-26T12:08:33.447Z,12.27
2022-12-26T12:13:53.717Z,12.19
2022-12-26T12:19:28.265Z,12.10
2022-12-26T12:25:01.283Z,12.00
2022-12-26T12:30:24.563Z,11.89
2022-12-26T12:35:41.433Z,11.86
2022-12-26T12:40:51.739Z,11.85
2022-12-26T12:46:09.799Z,11.91
2022-12-26T12:51:25.732Z,11.96
2022-12-26T12:56:50.396Z,11.96
2022-12-26T13:02:00.478Z,12.02
2022-12-26T13:07:22.338Z,11.96
2022-12-26T13:12:38.990Z,11.87
2022-12-26T13:17:54.456Z,11.74
2022-12-26T13:23:21.406Z,11.65
2022-12-26T13:28:30.011Z,11.59
2022-12-26T13:33:34.583Z,11.58
2022-12-26T13:38:56.726Z,11.57
2022-12-26T13:44:03.308Z,11.49
2022-12-26T13:49:29.725Z,11.44
2022-12-26T13:54:33.882Z,11.40
2022-12-26T13:59:46.688Z,11.34
2022-12-26T14:05:11.359Z,11.34
2022-12-26T14:10:27.967Z,11.31
2022-12-26T14:15:39.655Z,11.26
2022-12-26T14:20:56.531Z,11.21
2022-12-26T14:26:14.975Z,11.16
2022-12-26T14:31:34.871Z,11.06
2022-12-26T14:37:06.505Z,10.99
2022-12-26T14:42:41.015Z,10.95
2022-12-26T14:47:48.649Z,10.90
2022-12-26T14:52:52.406Z,10.87
2022-12-26T14:57:56.568Z,10.88
2022-12-26T15:03:01.918Z,10.87
2022-12-26T15:08:20.842Z,10.89
2022-12-26T15:13:53.767Z,10.86
2022-12-26T15:19:20.761Z,10.82
2022-12-26T15:25:18.050Z,10.80
2022-12-26T15:30:18.522Z,10.76
2022-12-26T15:35:22.205Z,10.74
2022-12-26T15:40:29.617Z,10.65
2022-12-26T15:45:36.348Z,10.54
2022-12-26T15:51:11.075Z,10.54
2022-12-26T15:56:51.641Z,10.56
2022-12-26T16:01:55.833Z,10.56
2022-12-26T16:07:45.076Z,10.53
2022-12-26T16:12:58.870Z,10.55
2022-12-26T16:18:17.353Z,10.54
2022-12-26T16:23:26.134Z,10.50
2022-12-26T16:28:38.641Z,10.37
2022-12-26T16:33:43.664Z,10.22
2022-12-26T16:38:47.554Z,10.08
2022-12-26T16:43:54.483Z,9.91
2022-12-26T16:48:59.918Z,9.77
2022-12-26T16:54:16.866Z,9.64
2022-12-26T16:59:23.828Z,9.54
2022-12-26T17:04:29.747Z,9.44
2022-12-26T17:09:41.510Z,9.37
2022-12-26T17:14:48.249Z,9.29
2022-12-26T17:19:54.783Z,9.19
2022-12-26T17:25:29.822Z,9.08
2022-12-26T17:30:33.849Z,8.97
2022-12-26T17:36:25.363Z,8.86
2022-12-26T17:41:04.151Z,8.73
2022-12-26T17:46:11.110Z,8.61
2022-12-26T17:51:17.829Z,8.49
2022-12-26T17:56:24.634Z,8.43
2022-12-26T18:01:28.567Z,8.38
2022-12-26T18:06:32.550Z,8.33
2022-12-26T18:11:36.532Z,8.28
2022-12-26T18:16:40.477Z,8.26
2022-12-26T18:21:44.631Z,8.23
2022-12-26T18:26:48.995Z,8.20
2022-12-26T18:31:53.647Z,8.23
2022-12-26T18:36:57.594Z,8.23
2022-12-26T18:42:01.554Z,8.26
2022-12-26T18:47:05.453Z,8.25
2022-12-26T18:52:10.230Z,8.20
2022-12-26T18:57:20.629Z,8.09
2022-12-26T19:02:24.670Z,7.99
2022-12-26T19:07:29.175Z,7.90
2022-12-26T19:12:33.272Z,7.77
2022-12-26T19:17:39.861Z,7.68
2022-12-26T19:22:44.616Z,7.64
2022-12-26T19:27:49.761Z,7.60
2022-12-26T19:32:53.927Z,7.51
2022-12-26T19:37:58.992Z,7.41
2022-12-26T19:43:03.395Z,7.34
2022-12-26T19:48:07.573Z,7.24
2022-12-26T19:53:11.876Z,7.07
2022-12-26T19:58:16.954Z,7.00
2022-12-26T20:03:21.553Z,6.98
2022-12-26T20:08:25.979Z,7.20
2022-12-26T20:13:29.818Z,7.19
2022-12-26T20:18:35.843Z,7.14
2022-12-26T20:23:41.436Z,7.06
2022-12-26T20:28:47.257Z,7.00
2022-12-26T20:33:53.305Z,6.96
2022-12-26T20:39:02.731Z,7.00
2022-12-26T20:44:06.907Z,7.05
2022-12-26T20:49:11.517Z,7.03
2022-12-26T20:54:17.107Z,6.93
2022-12-26T20:59:24.097Z,6.85
2022-12-26T21:04:29.835Z,6.78
2022-12-26T21:09:42.518Z,6.78
2022-12-26T21:14:50.692Z,6.83
2022-12-26T21:19:56.149Z,6.87
2022-12-26T21:25:00.589Z,6.92
2022-12-26T21:30:05.411Z,6.94
2022-12-26T21:35:09.867Z,6.94
2022-12-26T21:40:16.021Z,6.98
2022-12-26T21:45:20.141Z,7.01
2022-12-26T21:50:24.283Z,7.03
2022-12-26T21:55:28.782Z,7.14
2022-12-26T22:00:34.144Z,7.16
2022-12-26T22:05:40.366Z,7.20
2022-12-26T22:11:05.221Z,7.25
2022-12-26T22:16:11.293Z,7.30
2022-12-26T22:21:21.533Z,7.38
2022-12-26T22:26:26.615Z,7.48
2022-12-26T22:31:33.514Z,7.54
2022-12-26T22:36:37.628Z,7.67
2022-12-26T22:41:41.601Z,7.91
2022-12-26T22:46:48.718Z,8.11
2022-12-26T22:51:53.132Z,8.24
2022-12-26T22:56:57.444Z,8.35
2022-12-26T23:02:02.463Z,8.43
2022-12-26T23:07:07.240Z,8.45
2022-12-26T23:12:30.409Z,8.51
2022-12-26T23:17:55.589Z,8.54
2022-12-26T23:22:59.745Z,8.43
2022-12-26T23:28:22.776Z,7.88
2022-12-26T23:33:26.561Z,7.54
2022-12-26T23:38:30.469Z,7.33
2022-12-26T23:43:35.281Z,7.14
2022-12-26T23:48:39.320Z,6.96
2022-12-26T23:53:43.077Z,6.82
2022-12-26T23:58:46.840Z,6.69
